TimePST,TemperatureF,Dew PointF,Humidity,Sea Level PressureIn,VisibilityMPH,Wind Direction,Wind SpeedMPH,Gust SpeedMPH,PrecipitationIn,Events,Conditions,WindDirDegrees,DateUTC
12:53 AM,43.0,42.1,97,30.24,5.0,Calm,Calm,-,N/A,,Overcast,0,2013-02-04 08:53:00
2:53 AM,42.8,41.0,93,30.25,4.0,Calm,Calm,-,N/A,,Overcast,0,2013-02-04 10:53:00
3:39 AM,42.8,39.2,87,30.23,4.0,Calm,Calm,-,N/A,,Overcast,0,2013-02-04 11:39:00
3:53 AM,43.0,41.0,93,30.24,4.0,Calm,Calm,-,N/A,,Overcast,0,2013-02-04 11:53:00
4:53 AM,42.1,39.9,92,30.22,4.0,Calm,Calm,-,N/A,,Overcast,0,2013-02-04 12:53:00
5:53 AM,42.1,41.0,96,30.19,4.0,Calm,Calm,-,N/A,,Mostly Cloudy,0,2013-02-04 13:53:00
6:53 AM,41.0,39.9,96,30.19,7.0,Calm,Calm,-,N/A,,Overcast,0,2013-02-04 14:53:00
7:29 AM,41.0,39.2,93,30.19,7.0,Calm,Calm,-,N/A,,Mostly Cloudy,0,2013-02-04 15:29:00
7:53 AM,42.1,41.0,96,30.19,7.0,Calm,Calm,-,N/A,,Mostly Cloudy,0,2013-02-04 15:53:00
8:53 AM,43.0,42.1,97,30.18,7.0,Calm,Calm,-,N/A,,Overcast,0,2013-02-04 16:53:00
9:53 AM,45.0,41.0,86,30.16,10.0,Calm,Calm,-,N/A,,Overcast,0,2013-02-04 17:53:00
10:53 AM,45.0,42.1,90,30.17,8.0,WNW,4.6,-,N/A,,Overcast,290,2013-02-04 18:53:00
11:53 AM,48.0,41.0,77,30.13,9.0,Calm,Calm,-,N/A,,Overcast,0,2013-02-04 19:53:00
12:53 PM,48.9,42.1,77,30.10,9.0,NNW,3.5,-,N/A,,Overcast,330,2013-02-04 20:53:00
1:53 PM,51.1,39.0,63,30.08,10.0,Calm,Calm,-,N/A,,Mostly Cloudy,0,2013-02-04 21:53:00
2:53 PM,51.1,39.9,66,30.04,10.0,Calm,Calm,-,N/A,,Mostly Cloudy,0,2013-02-04 22:53:00
3:53 PM,50.0,39.9,68,30.04,10.0,Calm,Calm,-,N/A,,Overcast,0,2013-02-04 23:53:00
4:53 PM,50.0,39.9,68,30.03,10.0,Calm,Calm,-,N/A,,Overcast,0,2013-02-05 00:53:00
5:53 PM,48.9,41.0,74,30.02,10.0,Calm,Calm,-,N/A,,Overcast,0,2013-02-05 01:53:00
6:53 PM,46.0,39.9,79,29.99,10.0,East,6.9,-,N/A,,Overcast,100,2013-02-05 02:53:00
7:53 PM,46.9,39.9,77,29.97,10.0,SE,5.8,-,N/A,,Overcast,140,2013-02-05 03:53:00
8:53 PM,46.0,39.9,79,29.97,10.0,Calm,Calm,-,N/A,,Overcast,0,2013-02-05 04:53:00
9:53 PM,44.1,39.9,85,29.97,10.0,ESE,5.8,-,N/A,,Overcast,110,2013-02-05 05:53:00
10:53 PM,44.1,39.9,85,29.97,10.0,ESE,8.1,-,N/A,,Overcast,120,2013-02-05 06:53:00
11:53 PM,43.0,39.0,86,29.97,10.0,ESE,6.9,-,N/A,,Overcast,120,2013-02-05 07:53:00